Time;durP1;ratioP1;P1;durP2;ratioP2;P2;SDS_P1;SDS_P2;PMS_P1;PMS_P2;Temp;Humidity;BMP_temperature;BMP_pressure;BME280_temperature;BME280_humidity;BME280_pressure;Samples;Min_cycle;Max_cycle;Signal;HPM_P1;HPM_P2
2024/01/05 00:01:26;;;;;;;2.23;1.17;;;;;;;-20.59;41.26;99457.13;5077170;28;20108;-69
2024/01/05 00:03:52;;;;;;;4.10;1.93;;;;;;;-20.65;41.53;99444.06;5077372;28;20060;-67
2024/01/05 00:06:18;;;;;;;2.80;2.00;;;;;;;-20.42;42.63;99482.78;5076373;28;20040;-67
2024/01/05 00:08:44;;;;;;;3.33;1.77;;;;;;;-20.46;41.44;99489.88;5063187;28;20040;-69
2024/01/05 00:11:17;;;;;;;4.50;2.40;;;;;;;-20.73;41.79;99448.22;5061473;28;20383;-68
2024/01/05 00:13:43;;;;;;;7.23;2.50;;;;;;;-21.12;42.40;99386.34;5080548;28;20040;-66
2024/01/05 00:16:19;;;;;;;4.00;2.37;;;;;;;-20.93;42.26;99431.22;5080891;28;20032;-67
2024/01/05 00:18:45;;;;;;;3.90;1.37;;;;;;;-21.03;42.46;99419.47;5081508;28;20510;-68
2024/01/05 00:21:28;;;;;;;2.33;1.57;;;;;;;-20.67;41.59;99482.63;5078385;28;20086;-66
2024/01/05 00:23:55;;;;;;;2.90;1.17;;;;;;;-20.74;42.57;99468.72;5079276;28;20032;-67
2024/01/05 00:26:21;;;;;;;5.00;1.90;;;;;;;-20.95;42.23;99436.03;5080642;28;20130;-67
2024/01/05 00:28:50;;;;;;;2.60;1.47;;;;;;;-20.70;42.55;99460.00;5079022;28;20086;-67
2024/01/05 00:31:17;;;;;;;3.70;1.57;;;;;;;-20.66;41.79;99464.59;5046582;28;20127;-67
2024/01/05 00:33:47;;;;;;;3.33;2.23;;;;;;;-20.68;41.54;99459.50;5074907;28;20044;-67
2024/01/05 00:36:13;;;;;;;4.17;2.00;;;;;;;-20.88;42.20;99435.09;5059787;28;20175;-68
2024/01/05 00:38:46;;;;;;;7.27;2.20;;;;;;;-20.86;41.91;99437.75;5073251;28;20036;-67
2024/01/05 00:41:14;;;;;;;5.43;1.97;;;;;;;-20.84;42.43;99434.72;5064966;28;20073;-68
2024/01/05 00:43:41;;;;;;;2.77;2.13;;;;;;;-20.74;41.12;99468.72;5079180;28;20036;-68
2024/01/05 00:46:07;;;;;;;2.87;1.33;;;;;;;-20.74;42.62;99490.97;5060228;28;20036;-68
2024/01/05 00:48:33;;;;;;;6.63;1.77;;;;;;;-20.74;41.37;99478.63;5079966;28;20074;-68
2024/01/05 00:51:00;;;;;;;3.20;1.53;;;;;;;-20.92;41.88;99438.84;5065909;28;20060;-68
2024/01/05 00:53:26;;;;;;;1.93;1.53;;;;;;;-20.97;42.08;99473.69;5079710;28;20116;-65
2024/01/05 00:55:52;;;;;;;5.37;2.37;;;;;;;-21.13;42.20;99443.94;5080622;28;20044;-68
2024/01/05 00:58:18;;;;;;;8.60;2.40;;;;;;;-21.15;42.12;99430.50;5078587;28;20042;-68
2024/01/05 01:00:44;;;;;;;1.70;1.17;;;;;;;-21.12;41.42;99445.69;5047795;28;20037;-68
2024/01/05 01:03:10;;;;;;;2.50;1.63;;;;;;;-20.93;42.02;99469.25;5048659;28;20106;-68
2024/01/05 01:05:36;;;;;;;6.13;1.93;;;;;;;-21.11;42.59;99433.47;5060850;28;20089;-67
2024/01/05 01:08:03;;;;;;;4.47;1.73;;;;;;;-20.94;42.53;99454.22;5080460;28;20067;-68
2024/01/05 01:10:29;;;;;;;9.80;1.97;;;;;;;-20.73;42.50;99475.44;5079856;28;20039;-68
2024/01/05 01:12:55;;;;;;;3.07;1.40;;;;;;;-20.73;41.66;99472.06;5078704;28;20036;-67
2024/01/05 01:15:21;;;;;;;2.53;1.20;;;;;;;-20.87;41.45;99471.47;5078863;28;20051;-67
2024/01/05 01:17:47;;;;;;;4.77;1.90;;;;;;;-21.05;42.55;99448.09;5060957;28;20042;-67
2024/01/05 01:20:13;;;;;;;5.80;1.27;;;;;;;-21.14;42.84;99427.34;5078132;28;20470;-68
2024/01/05 01:22:39;;;;;;;4.37;2.57;;;;;;;-20.84;42.70;99470.94;5078795;28;20078;-67
2024/01/05 01:25:06;;;;;;;3.67;1.47;;;;;;;-20.97;42.11;99434.97;5060974;28;20040;-68
2024/01/05 01:27:35;;;;;;;2.60;1.93;;;;;;;-21.09;42.61;99399.03;5062542;28;20038;-67
2024/01/05 01:30:01;;;;;;;7.13;1.83;;;;;;;-20.97;41.84;99425.09;5065659;28;20040;-68
2024/01/05 01:32:31;;;;;;;3.63;1.87;;;;;;;-20.92;41.56;99431.41;5072565;28;20036;-66
2024/01/05 01:34:57;;;;;;;2.60;1.43;;;;;;;-21.08;42.25;99404.13;5078886;28;20425;-68
2024/01/05 01:37:23;;;;;;;5.87;2.17;;;;;;;-21.10;41.91;99412.13;5077269;28;20044;-68
2024/01/05 01:39:49;;;;;;;2.73;1.93;;;;;;;-21.04;41.92;99432.53;5078886;28;20035;-68
2024/01/05 01:42:15;;;;;;;2.47;1.33;;;;;;;-21.02;42.85;99431.13;5080033;28;20035;-67
2024/01/05 01:44:41;;;;;;;2.93;1.67;;;;;;;-20.82;41.61;99469.50;5077234;28;20043;-68
2024/01/05 01:47:07;;;;;;;3.53;1.57;;;;;;;-20.92;42.73;99458.63;5079975;28;20051;-67
2024/01/05 01:49:33;;;;;;;2.57;1.37;;;;;;;-20.82;42.73;99476.94;5079153;28;20116;-67
2024/01/05 01:51:59;;;;;;;6.80;2.23;;;;;;;-20.77;42.38;99475.84;5054151;28;20040;-67
2024/01/05 01:54:27;;;;;;;6.20;2.50;;;;;;;-20.90;42.33;99451.34;5078280;28;20067;-67
2024/01/05 01:56:53;;;;;;;4.37;2.70;;;;;;;-20.77;41.88;99470.88;5079623;28;20063;-68
2024/01/05 01:59:19;;;;;;;7.43;2.83;;;;;;;-20.94;43.04;99442.75;5077993;28;20036;-67
2024/01/05 02:01:46;;;;;;;3.27;1.23;;;;;;;-20.90;42.39;99452.97;5076810;28;20040;-68
2024/01/05 02:04:15;;;;;;;6.80;1.50;;;;;;;-20.71;42.33;99476.47;5077769;28;20043;-68
2024/01/05 02:06:45;;;;;;;5.07;2.10;;;;;;;-20.98;41.75;99425.81;5078137;28;20040;-67
2024/01/05 02:09:12;;;;;;;4.23;1.80;;;;;;;-21.41;42.98;99355.28;5077274;28;20134;-68
2024/01/05 02:11:39;;;;;;;5.23;2.07;;;;;;;-20.93;42.51;99444.50;5059936;28;20287;-67
2024/01/05 02:14:06;;;;;;;5.63;1.40;;;;;;;-20.78;41.92;99471.59;5078351;28;20036;-68
2024/01/05 02:16:32;;;;;;;2.03;1.17;;;;;;;-20.92;42.18;99451.22;5062123;28;20078;-69
2024/01/05 02:19:18;;;;;;;1.17;1.07;;;;;;;-20.77;42.40;99483.25;5078030;28;20075;-68
2024/01/05 02:21:48;;;;;;;3.27;2.03;;;;;;;-21.19;42.27;99411.09;5077607;28;20575;-68
2024/01/05 02:24:14;;;;;;;5.67;1.67;;;;;;;-20.97;42.48;99447.34;5047444;28;20043;-68
2024/01/05 02:26:40;;;;;;;2.33;1.53;;;;;;;-21.31;42.81;99388.41;5076094;28;20088;-65
2024/01/05 02:29:06;;;;;;;8.87;2.50;;;;;;;-21.07;42.69;99418.25;5060325;28;20038;-65
2024/01/05 02:31:32;;;;;;;3.83;1.93;;;;;;;-21.22;42.28;99397.69;5080343;28;20472;-65
2024/01/05 02:33:58;;;;;;;5.20;1.87;;;;;;;-21.13;43.09;99422.53;5079836;28;20147;-65
2024/01/05 02:36:24;;;;;;;2.57;2.03;;;;;;;-21.06;42.98;99436.44;5080510;28;20424;-65
2024/01/05 02:38:50;;;;;;;2.73;1.37;;;;;;;-20.75;42.59;99459.53;5064505;28;20418;-66
2024/01/05 02:41:16;;;;;;;6.40;3.00;;;;;;;-20.76;41.73;99472.66;5092805;28;20050;-65
2024/01/05 02:43:42;;;;;;;7.33;2.53;;;;;;;-20.98;42.19;99442.25;5052609;28;20245;-66
2024/01/05 02:46:09;;;;;;;14.87;2.53;;;;;;;-21.10;42.53;99432.75;5068130;28;20103;-66
2024/01/05 02:48:35;;;;;;;5.23;1.43;;;;;;;-20.96;41.61;99463.09;5079108;28;20422;-66
2024/01/05 02:51:01;;;;;;;4.00;1.97;;;;;;;-20.79;42.27;99482.22;5075911;28;20130;-67
2024/01/05 02:53:27;;;;;;;2.73;1.30;;;;;;;-20.83;42.69;99465.25;5077647;28;20131;-66
2024/01/05 02:55:53;;;;;;;2.13;1.43;;;;;;;-20.84;42.24;99456.97;5095373;28;20078;-67
2024/01/05 02:58:19;;;;;;;6.07;1.77;;;;;;;-20.77;42.53;99456.94;5075002;28;20046;-67
2024/01/05 03:00:45;;;;;;;2.80;1.83;;;;;;;-20.94;42.45;99440.25;5076417;28;20103;-66
2024/01/05 03:03:11;;;;;;;1.50;0.97;;;;;;;-20.81;41.99;99446.53;5075770;28;20493;-67
2024/01/05 03:05:39;;;;;;;4.50;1.97;;;;;;;-20.81;42.76;99439.09;5075502;28;20050;-68
2024/01/05 03:08:06;;;;;;;2.70;1.90;;;;;;;-20.55;42.86;99475.63;5061141;28;20035;-66
2024/01/05 03:10:32;;;;;;;3.77;1.97;;;;;;;-20.59;43.11;99479.38;5096345;28;20036;-65
2024/01/05 03:12:58;;;;;;;3.40;1.57;;;;;;;-20.66;42.90;99472.00;5061745;28;20112;-66
2024/01/05 03:15:24;;;;;;;2.90;1.40;;;;;;;-20.71;42.90;99469.06;5075286;28;20066;-65
2024/01/05 03:17:51;;;;;;;6.83;2.10;;;;;;;-20.63;41.70;99484.72;5060052;28;20138;-67
2024/01/05 03:20:20;;;;;;;6.80;2.10;;;;;;;-20.64;43.17;99466.53;5063772;28;20039;-65
2024/01/05 03:22:46;;;;;;;3.87;2.27;;;;;;;-20.73;43.11;99472.94;5077688;28;20082;-66
2024/01/05 03:25:13;;;;;;;1.50;1.40;;;;;;;-20.87;42.82;99454.16;5077975;28;20203;-66
2024/01/05 03:27:50;;;;;;;4.03;1.93;;;;;;;-20.69;42.64;99482.47;5080421;28;20146;-67
2024/01/05 03:30:16;;;;;;;2.97;1.53;;;;;;;-20.69;42.57;99486.53;5077198;28;20142;-66
2024/01/05 03:32:42;;;;;;;4.17;2.03;;;;;;;-20.71;43.27;99481.41;5066899;28;20104;-66
2024/01/05 03:35:08;;;;;;;4.23;1.50;;;;;;;-20.66;41.77;99492.72;5064178;28;20036;-67
2024/01/05 03:37:34;;;;;;;3.00;2.00;;;;;;;-20.59;42.64;99488.41;5064358;28;20036;-66
2024/01/05 03:40:01;;;;;;;7.27;2.67;;;;;;;-20.85;42.30;99449.41;5063173;28;20134;-66
2024/01/05 03:42:31;;;;;;;4.00;2.40;;;;;;;-20.71;41.81;99478.06;5077364;28;20031;-65
2024/01/05 03:44:57;;;;;;;2.33;1.77;;;;;;;-20.58;43.17;99503.44;5094478;28;20477;-65
2024/01/05 03:47:24;;;;;;;2.97;1.33;;;;;;;-20.59;42.18;99485.91;5075425;28;20274;-65
2024/01/05 03:49:50;;;;;;;5.50;1.67;;;;;;;-20.70;42.61;99475.75;5050297;28;20065;-64
2024/01/05 03:52:16;;;;;;;10.17;2.20;;;;;;;-20.63;42.72;99483.09;5080854;28;20062;-65
2024/01/05 03:54:42;;;;;;;3.73;1.80;;;;;;;-20.61;42.82;99496.53;5060325;28;20036;-68
2024/01/05 03:57:09;;;;;;;4.63;1.30;;;;;;;-20.66;43.05;99491.81;5076612;28;20096;-67
2024/01/05 03:59:35;;;;;;;3.10;1.50;;;;;;;-20.89;43.18;99447.31;5074711;28;20052;-68
2024/01/05 04:02:01;;;;;;;2.13;1.03;;;;;;;-20.61;43.06;99505.56;5046100;28;20474;-67
2024/01/05 04:04:27;;;;;;;5.17;1.40;;;;;;;-20.84;41.83;99473.41;5076101;28;20036;-68
2024/01/05 04:06:53;;;;;;;5.47;2.17;;;;;;;-20.62;43.34;99502.19;5061339;28;20047;-67
2024/01/05 04:09:19;;;;;;;5.33;1.73;;;;;;;-20.56;42.18;99501.09;5097124;28;20048;-68
2024/01/05 04:11:45;;;;;;;5.63;1.90;;;;;;;-20.85;42.22;99469.19;5097040;28;20032;-67
2024/01/05 04:14:12;;;;;;;3.07;1.90;;;;;;;-20.81;42.69;99476.22;5084056;28;20332;-68
2024/01/05 04:16:38;;;;;;;3.97;1.30;;;;;;;-20.85;42.61;99474.16;5080616;28;20047;-67
2024/01/05 04:19:04;;;;;;;3.00;1.70;;;;;;;-20.75;42.77;99488.38;5078434;28;20706;-67
2024/01/05 04:21:30;;;;;;;1.37;1.27;;;;;;;-20.64;42.78;99517.59;5084095;28;20032;-68
2024/01/05 04:23:57;;;;;;;3.60;1.80;;;;;;;-20.68;42.61;99508.09;5079542;28;20035;-67
2024/01/05 04:26:23;;;;;;;3.50;1.20;;;;;;;-20.73;42.49;99519.06;5065947;28;20132;-68
2024/01/05 04:28:49;;;;;;;15.53;2.90;;;;;;;-20.88;43.03;99463.91;5082436;28;20048;-67
2024/01/05 04:31:15;;;;;;;5.97;3.03;;;;;;;-20.58;43.36;99505.00;5079243;28;20040;-67
2024/01/05 04:33:42;;;;;;;5.50;2.43;;;;;;;-20.78;42.77;99461.69;5098327;28;20070;-68
2024/01/05 04:36:08;;;;;;;6.67;3.00;;;;;;;-21.34;43.50;99401.31;5098844;28;20043;-68
2024/01/05 04:38:34;;;;;;;3.87;2.07;;;;;;;-20.73;43.52;99489.38;5086229;28;20035;-65
2024/01/05 04:41:02;;;;;;;9.13;2.20;;;;;;;-20.69;42.28;99502.28;5064021;28;20135;-66
2024/01/05 04:43:28;;;;;;;3.73;2.00;;;;;;;-20.62;42.43;99519.53;5085954;28;20493;-66
2024/01/05 04:45:54;;;;;;;5.03;2.53;;;;;;;-20.88;42.48;99484.56;5077648;28;20067;-65
2024/01/05 04:48:20;;;;;;;3.47;1.90;;;;;;;-20.66;42.63;99517.44;5080587;28;20032;-65
2024/01/05 04:50:46;;;;;;;3.23;1.93;;;;;;;-21.04;43.76;99469.66;5064823;28;20063;-64
2024/01/05 04:53:13;;;;;;;2.20;1.70;;;;;;;-20.98;43.32;99480.22;5078984;28;20442;-63
2024/01/05 04:55:39;;;;;;;7.67;3.37;;;;;;;-20.63;42.50;99522.72;5079883;28;20046;-63
2024/01/05 04:58:05;;;;;;;9.00;2.80;;;;;;;-20.51;43.33;99525.63;5066104;28;20542;-64
2024/01/05 05:00:31;;;;;;;5.67;3.10;;;;;;;-20.71;42.59;99478.94;5066698;28;20458;-66
2024/01/05 05:02:57;;;;;;;4.40;1.97;;;;;;;-20.54;43.79;99509.59;5052796;28;20408;-66
2024/01/05 05:05:23;;;;;;;3.33;2.53;;;;;;;-20.58;42.99;99508.38;5077630;28;20127;-65
2024/01/05 05:07:49;;;;;;;8.47;3.03;;;;;;;-20.51;43.40;99509.91;5096116;28;20131;-65
2024/01/05 05:10:15;;;;;;;5.47;1.90;;;;;;;-20.56;42.57;99528.34;5078836;28;20085;-65
2024/01/05 05:12:41;;;;;;;3.20;1.63;;;;;;;-20.87;43.91;99501.19;5098966;28;20386;-65
2024/01/05 05:15:09;;;;;;;5.63;2.27;;;;;;;-20.92;43.67;99490.78;5096970;28;20036;-65
2024/01/05 05:17:37;;;;;;;6.10;2.67;;;;;;;-20.89;42.86;99500.13;5067666;28;20565;-66
2024/01/05 05:20:03;;;;;;;6.87;2.63;;;;;;;-20.95;43.02;99490.44;5066007;28;20280;-65
2024/01/05 05:22:31;;;;;;;7.80;3.73;;;;;;;-20.87;43.21;99512.69;5099385;28;20135;-65
2024/01/05 05:24:57;;;;;;;10.23;2.93;;;;;;;-20.77;42.52;99542.66;5078397;28;20454;-65
2024/01/05 05:27:23;;;;;;;9.00;2.73;;;;;;;-20.69;43.10;99545.91;5068228;28;20169;-66
2024/01/05 05:29:50;;;;;;;7.43;3.37;;;;;;;-20.87;42.91;99515.16;5079101;28;20412;-66
2024/01/05 05:32:29;;;;;;;10.73;3.70;;;;;;;-20.98;43.13;99506.56;5083677;28;20501;-66
2024/01/05 05:34:56;;;;;;;14.67;1.90;;;;;;;-21.10;42.70;99488.78;5064583;28;20039;-65
2024/01/05 05:37:25;;;;;;;1.23;1.00;;;;;;;-20.75;42.98;99527.97;5063120;28;20040;-66
2024/01/05 05:39:52;;;;;;;2.83;1.30;;;;;;;-20.76;42.69;99519.66;5063642;28;20051;-65
2024/01/05 05:42:18;;;;;;;4.10;1.70;;;;;;;-20.74;43.02;99528.09;5051560;28;20569;-65
2024/01/05 05:44:44;;;;;;;4.33;2.27;;;;;;;-20.65;43.15;99539.00;5095550;28;20040;-66
2024/01/05 05:47:10;;;;;;;4.40;2.03;;;;;;;-20.67;43.58;99530.53;5064038;28;20039;-66
2024/01/05 05:49:36;;;;;;;4.40;1.13;;;;;;;-20.62;43.53;99543.41;5079067;28;20503;-65
2024/01/05 05:52:04;;;;;;;4.13;1.43;;;;;;;-20.55;43.04;99547.41;5097248;28;20405;-65
2024/01/05 05:54:30;;;;;;;6.87;2.17;;;;;;;-21.09;42.60;99451.84;5066193;28;20067;-66
2024/01/05 05:56:56;;;;;;;2.57;1.30;;;;;;;-20.61;41.96;99530.31;5046794;28;22087;-66
2024/01/05 05:59:23;;;;;;;3.30;1.40;;;;;;;-20.77;42.79;99550.06;5080393;28;20126;-65
2024/01/05 06:01:49;;;;;;;4.77;2.10;;;;;;;-21.15;42.64;99535.25;5099143;28;20127;-66
2024/01/05 06:04:15;;;;;;;4.70;2.80;;;;;;;-21.32;43.43;99488.00;5096702;28;20036;-66
2024/01/05 06:06:41;;;;;;;4.27;2.90;;;;;;;-21.33;44.02;99456.56;5080387;28;20640;-65
2024/01/05 06:09:07;;;;;;;11.77;3.97;;;;;;;-20.65;43.30;99560.38;5096204;28;20046;-65
2024/01/05 06:11:33;;;;;;;4.33;2.60;;;;;;;-20.69;43.93;99536.00;5084207;28;20069;-65
2024/01/05 06:14:00;;;;;;;4.63;2.93;;;;;;;-21.69;43.56;99410.69;5076572;28;20112;-64
2024/01/05 06:16:26;;;;;;;7.07;2.30;;;;;;;-20.70;44.39;99551.56;5076476;28;20044;-66
2024/01/05 06:18:52;;;;;;;3.47;2.10;;;;;;;-20.72;42.50;99539.06;5074942;28;20032;-66
2024/01/05 06:21:18;;;;;;;0.93;0.77;;;;;;;-20.95;43.00;99531.59;5079291;28;20130;-66
2024/01/05 06:23:44;;;;;;;3.93;2.03;;;;;;;-20.72;43.26;99555.47;5095181;28;20139;-66
2024/01/05 06:26:09;;;;;;;5.03;2.33;;;;;;;-20.69;43.27;99550.88;5094085;28;20125;-67
2024/01/05 06:28:35;;;;;;;9.10;3.00;;;;;;;-20.49;43.84;99540.66;5065347;28;20374;-67
2024/01/05 06:31:02;;;;;;;4.70;2.10;;;;;;;-20.03;44.39;99547.19;5063265;28;20569;-65
2024/01/05 06:33:28;;;;;;;4.27;2.07;;;;;;;-19.53;44.61;99540.84;5064328;28;20047;-65
2024/01/05 06:35:54;;;;;;;7.93;2.83;;;;;;;-19.07;43.23;99557.13;5076440;28;20040;-66
2024/01/05 06:38:20;;;;;;;9.47;3.50;;;;;;;-18.64;43.10;99523.34;5097426;28;20154;-65
2024/01/05 06:40:46;;;;;;;4.23;2.03;;;;;;;-18.07;42.45;99528.19;5063573;28;20177;-67
2024/01/05 06:43:12;;;;;;;4.57;2.50;;;;;;;-17.05;42.82;99518.03;5079165;28;20101;-67
2024/01/05 06:45:38;;;;;;;5.60;2.10;;;;;;;-15.79;42.67;99547.84;5076324;28;20031;-65
2024/01/05 06:48:19;;;;;;;11.40;2.13;;;;;;;-14.94;42.98;99538.63;5078511;28;20109;-66
2024/01/05 06:50:45;;;;;;;2.63;1.40;;;;;;;-14.01;41.19;99548.97;5064451;28;20401;-65
2024/01/05 06:53:11;;;;;;;5.23;1.70;;;;;;;-13.70;40.80;99529.88;5063322;28;20031;-67
2024/01/05 06:55:37;;;;;;;5.70;2.33;;;;;;;-12.67;41.12;99548.03;5096506;28;20138;-65
2024/01/05 06:58:04;;;;;;;6.70;2.80;;;;;;;-12.73;41.17;99469.09;5081158;28;20048;-67
2024/01/05 07:00:30;;;;;;;7.13;2.43;;;;;;;-11.60;40.09;99549.50;5081547;28;20126;-66
2024/01/05 07:02:56;;;;;;;7.00;3.23;;;;;;;-10.55;41.22;99530.19;5077043;28;20139;-67
2024/01/05 07:05:22;;;;;;;11.68;5.70;;;;;;;-8.93;40.89;99536.00;5076099;28;20085;-66
2024/01/05 07:07:54;;;;;;;16.27;6.55;;;;;;;-8.18;39.00;99463.19;5045803;28;20039;-67
2024/01/05 07:10:30;;;;;;;15.57;7.45;;;;;;;-8.05;38.19;99476.53;5063195;28;20091;-66
2024/01/05 07:12:57;;;;;;;11.75;6.15;;;;;;;-7.28;37.79;99511.41;5058834;28;20497;-66
2024/01/05 07:15:23;;;;;;;11.48;5.28;;;;;;;-7.08;37.36;99509.13;5063179;28;21128;-66
2024/01/05 07:17:55;;;;;;;13.65;5.28;;;;;;;-6.22;37.02;99540.88;5068052;28;20054;-67
2024/01/05 07:20:22;;;;;;;9.38;4.13;;;;;;;-6.23;36.44;99479.97;5082640;28;20120;-67
2024/01/05 07:22:49;;;;;;;11.05;4.68;;;;;;;-4.93;35.57;99539.78;5062162;28;20051;-67
2024/01/05 07:25:15;;;;;;;9.35;4.32;;;;;;;-4.39;35.82;99523.69;5095097;28;20054;-67
2024/01/05 07:27:44;;;;;;;16.02;6.30;;;;;;;-3.27;35.63;99518.44;5075482;28;20135;-68
2024/01/05 07:30:11;;;;;;;11.75;4.90;;;;;;;-3.38;34.06;99534.09;5075872;28;20158;-68
2024/01/05 07:32:57;;;;;;;11.75;5.20;;;;;;;-2.54;33.54;99526.47;5069900;28;20051;-68
2024/01/05 07:35:28;;;;;;;11.73;5.20;;;;;;;-2.83;32.78;99506.66;5079060;28;20104;-68
2024/01/05 07:37:57;;;;;;;8.18;4.78;;;;;;;-3.16;31.14;99490.88;5075582;28;20043;-67
2024/01/05 07:40:31;;;;;;;8.90;4.45;;;;;;;-2.12;32.59;99514.50;5073080;28;20047;-67
2024/01/05 07:42:57;;;;;;;13.98;4.78;;;;;;;-1.14;32.04;99499.19;5061705;28;20135;-67
2024/01/05 07:45:24;;;;;;;12.48;5.22;;;;;;;-1.01;31.46;99508.13;5059249;28;20143;-67
2024/01/05 07:47:59;;;;;;;13.95;5.47;;;;;;;-3.06;27.97;99439.50;5045985;28;20067;-66
2024/01/05 07:50:25;;;;;;;14.20;5.10;;;;;;;-2.76;30.89;99498.44;5074163;28;20126;-66
2024/01/05 07:52:52;;;;;;;8.93;4.47;;;;;;;-2.03;30.63;99519.09;5074520;28;20051;-65
2024/01/05 07:55:19;;;;;;;11.40;5.63;;;;;;;-1.87;28.49;99529.84;5075674;28;20181;-66
2024/01/05 07:57:46;;;;;;;12.55;5.35;;;;;;;-2.84;27.76;99538.03;5062177;28;20041;-66
2024/01/05 08:00:12;;;;;;;17.92;6.18;;;;;;;-3.39;28.14;99503.50;5074972;28;20208;-66
2024/01/05 08:02:46;;;;;;;13.38;6.68;;;;;;;-2.77;28.88;99498.41;5073683;28;20047;-66
2024/01/05 08:05:12;;;;;;;11.65;5.60;;;;;;;-1.00;29.17;99497.97;5079134;28;20041;-67
2024/01/05 08:07:38;;;;;;;9.75;6.25;;;;;;;-0.35;28.27;99448.00;5059501;28;20185;-67
2024/01/05 08:10:05;;;;;;;17.77;10.20;;;;;;;1.11;27.71;99514.22;5049953;28;20173;-66
2024/01/05 08:12:33;;;;;;;12.40;6.50;;;;;;;1.71;26.47;99507.06;5062409;28;20041;-66
2024/01/05 08:14:59;;;;;;;10.45;5.07;;;;;;;1.83;26.38;99479.94;5074416;28;20044;-67
2024/01/05 08:17:25;;;;;;;11.23;7.15;;;;;;;2.10;25.88;99477.09;5072550;28;20040;-70
2024/01/05 08:19:51;;;;;;;11.73;7.18;;;;;;;2.44;25.49;99467.47;5072107;28;20108;-66
2024/01/05 08:22:18;;;;;;;15.32;10.65;;;;;;;1.84;24.94;99435.50;5077611;28;20044;-66
2024/01/05 08:24:44;;;;;;;13.27;7.93;;;;;;;1.44;25.15;99413.28;5077644;28;20044;-64
2024/01/05 08:27:10;;;;;;;13.90;6.25;;;;;;;1.50;23.41;99513.44;5074498;28;20039;-65
2024/01/05 08:29:38;;;;;;;12.50;6.03;;;;;;;1.11;23.80;99456.94;5061926;28;20402;-67
2024/01/05 08:32:04;;;;;;;14.32;6.50;;;;;;;2.16;24.44;99522.56;5046274;28;21414;-66
2024/01/05 08:34:31;;;;;;;12.05;6.18;;;;;;;1.72;23.84;99492.56;5072074;28;20040;-65
2024/01/05 08:36:57;;;;;;;16.08;7.85;;;;;;;2.03;23.62;99463.28;5060090;28;20558;-65
2024/01/05 08:39:23;;;;;;;13.75;7.05;;;;;;;2.57;23.72;99522.50;5073473;28;20078;-65
2024/01/05 08:41:51;;;;;;;14.70;7.18;;;;;;;2.56;23.48;99451.41;5059990;28;20081;-65
2024/01/05 08:44:17;;;;;;;14.95;7.50;;;;;;;3.32;22.54;99465.50;5058903;28;20064;-69
2024/01/05 08:46:43;;;;;;;18.95;10.02;;;;;;;4.29;22.99;99481.38;5073200;28;20075;-66
2024/01/05 08:49:11;;;;;;;25.35;13.05;;;;;;;5.39;22.55;99500.47;5073723;28;20130;-65
2024/01/05 08:51:44;;;;;;;21.73;10.93;;;;;;;4.62;21.94;99479.16;5072522;28;20051;-65
2024/01/05 08:54:10;;;;;;;15.68;8.48;;;;;;;4.33;21.69;99497.72;5060202;28;20043;-66
2024/01/05 08:56:37;;;;;;;14.98;8.48;;;;;;;4.50;20.67;99496.25;5045621;28;20039;-65
2024/01/05 08:59:06;;;;;;;19.30;9.85;;;;;;;4.38;21.20;99503.81;5076614;28;20044;-66
2024/01/05 09:01:33;;;;;;;17.65;8.90;;;;;;;4.78;22.36;99490.50;5071456;28;20037;-65
2024/01/05 09:04:00;;;;;;;12.70;7.90;;;;;;;5.68;21.81;99470.56;5072901;28;20040;-67
2024/01/05 09:06:27;;;;;;;12.27;7.30;;;;;;;5.20;21.28;99439.25;5072327;28;20119;-66
2024/01/05 09:08:53;;;;;;;14.43;7.40;;;;;;;5.26;20.53;99453.09;5071786;28;20058;-66
2024/01/05 09:11:19;;;;;;;12.75;7.15;;;;;;;5.91;21.04;99457.75;5078482;28;20040;-67
2024/01/05 09:13:47;;;;;;;12.75;7.25;;;;;;;6.70;20.16;99495.97;5077150;28;20041;-67
2024/01/05 09:16:13;;;;;;;11.55;6.20;;;;;;;6.12;19.21;99489.72;5061637;28;20032;-65
2024/01/05 09:18:39;;;;;;;10.60;6.13;;;;;;;5.38;19.88;99426.50;5061784;28;20153;-65
2024/01/05 09:21:07;;;;;;;14.63;6.95;;;;;;;5.80;20.51;99449.09;5044035;28;20245;-65
2024/01/05 09:23:35;;;;;;;12.05;6.43;;;;;;;6.81;20.15;99488.22;5062085;28;20510;-65
2024/01/05 09:26:01;;;;;;;26.10;18.10;;;;;;;7.06;20.05;99458.03;5056553;28;20040;-67
2024/01/05 09:28:27;;;;;;;16.65;10.15;;;;;;;7.53;20.03;99456.25;5058674;28;20067;-66
2024/01/05 09:30:53;;;;;;;11.82;6.50;;;;;;;7.51;19.03;99420.03;5060971;28;20036;-65
2024/01/05 09:33:19;;;;;;;10.63;6.53;;;;;;;7.67;19.49;99476.97;5048397;28;20529;-66
2024/01/05 09:35:48;;;;;;;10.93;6.82;;;;;;;7.87;19.34;99450.13;5071917;28;20078;-64
2024/01/05 09:38:35;;;;;;;11.82;6.53;;;;;;;7.17;19.04;99445.09;5064916;28;20040;-65
2024/01/05 09:41:21;;;;;;;19.05;8.40;;;;;;;7.53;19.40;99467.50;5063938;28;20043;-64
2024/01/05 09:44:10;;;;;;;11.23;7.18;;;;;;;7.81;19.35;99444.13;5071997;28;20041;-71
2024/01/05 09:46:57;;;;;;;12.23;7.03;;;;;;;6.84;18.00;99470.97;5064775;28;20040;-68
2024/01/05 09:49:45;;;;;;;14.05;7.97;;;;;;;6.36;19.01;99470.00;5064505;28;20482;-67
2024/01/05 09:52:30;;;;;;;14.43;8.32;;;;;;;6.69;19.43;99419.25;5076264;28;20391;-67
2024/01/05 09:55:16;;;;;;;12.90;7.07;;;;;;;7.23;19.13;99455.47;5072415;28;20059;-66
2024/01/05 09:58:05;;;;;;;11.27;6.43;;;;;;;7.61;18.82;99456.28;5072185;28;20036;-68
2024/01/05 10:00:52;;;;;;;10.93;6.75;;;;;;;7.93;18.76;99431.97;5063415;28;20057;-67
2024/01/05 10:03:38;;;;;;;8.90;5.90;;;;;;;7.53;18.56;99440.72;5072790;28;20040;-69
2024/01/05 10:06:25;;;;;;;12.75;6.70;;;;;;;6.04;18.13;99435.44;5072606;28;20114;-69
2024/01/05 10:09:11;;;;;;;14.32;6.20;;;;;;;3.99;18.12;99456.13;5062684;28;20065;-71
2024/01/05 10:11:57;;;;;;;13.10;6.97;;;;;;;2.99;19.01;99459.00;5060402;28;20097;-67
2024/01/05 10:14:46;;;;;;;14.05;7.28;;;;;;;1.33;18.68;99448.09;5072865;28;20032;-68
2024/01/05 10:17:33;;;;;;;17.83;9.85;;;;;;;-1.44;19.07;99443.75;5073299;28;20047;-68
2024/01/05 10:20:19;;;;;;;14.68;7.32;;;;;;;-2.75;20.31;99444.13;5062326;28;20409;-68
2024/01/05 10:22:48;;;;;;;15.10;7.15;;;;;;;-3.55;20.62;99492.69;5074644;28;20067;-68
2024/01/05 10:25:36;;;;;;;13.13;7.10;;;;;;;-4.86;21.16;99449.56;5061383;28;20101;-68
2024/01/05 10:28:32;;;;;;;13.80;6.47;;;;;;;-5.59;21.56;99489.16;5070441;28;20048;-68
2024/01/05 10:31:18;;;;;;;13.88;6.50;;;;;;;-6.66;21.55;99454.09;5062301;28;20393;-68
2024/01/05 10:34:04;;;;;;;14.25;5.78;;;;;;;-7.63;22.49;99457.16;5072467;28;20046;-68
2024/01/05 10:37:02;;;;;;;12.65;6.55;;;;;;;-8.13;22.91;99491.22;5073761;28;20510;-68
2024/01/05 10:39:53;;;;;;;17.10;5.97;;;;;;;-8.97;23.50;99447.44;5064497;28;20064;-66
2024/01/05 10:42:39;;;;;;;19.02;6.57;;;;;;;-9.14;23.67;99469.03;5080171;28;20482;-68
2024/01/05 10:45:26;;;;;;;14.80;6.53;;;;;;;-9.21;23.66;99515.69;5080893;28;20047;-68
2024/01/05 10:48:16;;;;;;;14.18;7.20;;;;;;;-9.73;23.78;99490.44;5080929;28;20052;-68
2024/01/05 10:51:03;;;;;;;18.15;6.60;;;;;;;-9.88;23.94;99507.91;5078039;28;20389;-68
2024/01/05 10:53:50;;;;;;;18.63;6.47;;;;;;;-10.19;24.18;99499.16;5078945;28;20051;-67
2024/01/05 10:56:41;;;;;;;14.53;6.17;;;;;;;-10.60;24.56;99507.25;5080658;28;20355;-67
2024/01/05 10:59:27;;;;;;;15.70;5.93;;;;;;;-11.26;24.65;99443.09;5080109;28;20121;-67
2024/01/05 11:02:34;;;;;;;11.47;5.13;;;;;;;-11.09;24.92;99504.59;5071479;28;20035;-68
2024/01/05 11:05:23;;;;;;;18.27;6.87;;;;;;;-11.35;25.31;99526.19;5066680;28;20796;-69
2024/01/05 11:08:48;;;;;;;13.20;5.70;;;;;;;-12.05;25.33;99477.53;5080901;28;20046;-68
2024/01/05 11:12:09;;;;;;;9.50;4.63;;;;;;;-12.29;25.81;99497.50;5044729;28;20035;-68
2024/01/05 11:15:24;;;;;;;10.73;4.87;;;;;;;-12.73;26.20;99499.19;5019978;28;20046;-67
2024/01/05 11:18:13;;;;;;;8.90;4.10;;;;;;;-11.99;26.75;99525.66;5067740;28;20549;-67
2024/01/05 11:21:19;;;;;;;13.17;4.17;;;;;;;-13.43;25.91;99491.94;5081237;28;20039;-68
2024/01/05 11:24:06;;;;;;;12.93;4.70;;;;;;;-13.96;26.70;99471.03;5082362;28;20853;-67
2024/01/05 11:26:54;;;;;;;12.63;5.00;;;;;;;-13.89;27.10;99484.94;5083958;28;20042;-68
2024/01/05 11:29:51;;;;;;;7.70;3.30;;;;;;;-14.11;26.59;99520.66;5084949;28;20035;-69
2024/01/05 11:32:42;;;;;;;11.63;4.67;;;;;;;-14.34;28.42;99508.75;5072483;28;20040;-71
2024/01/05 11:35:43;;;;;;;8.27;3.00;;;;;;;-14.26;27.85;99520.28;5083485;28;20032;-69
2024/01/05 11:38:29;;;;;;;9.30;3.23;;;;;;;-14.43;28.11;99525.44;5084943;28;20099;-67
2024/01/05 11:41:19;;;;;;;9.43;3.00;;;;;;;-14.41;29.05;99519.84;5057799;28;20060;-68
2024/01/05 11:44:25;;;;;;;9.40;3.67;;;;;;;-14.44;28.68;99492.09;5048202;28;20068;-68